Kalamazoo Battle Creek International Airport
KAZO : rendu visible

Aérodrome :











RETROUVEZ-NOUS SUR...

 
LOGIN :

S'inscrire | Disclaimer

   EN    FR    IT 

 









Légende :    VFR   VFR Marginal   IFR   IFR Intensif   IFR Très Intensif
Visi : 
Plafond : 
>= 8 km
>= 3000ft
5 à 8 km
1000 à 3000 ft
1500m à 5 km
500 à 1000 ft
800 à 1500m
200 à 500 ft
< 800m
< 200 ft
Symboles :   Orages  Brouillard  Fortes neiges  Fortes précipitations  Vent > 20 kt






- Altitude de l'aérodrome : 874 ft
- Code IATA : AZO


KAZO - Kalamazoo Battle Creek International

DERNIER METAR :
  • 121807Z 33011G16KT 10SM BKN028 BKN032 M04/M11 A3035 RMK AO2 UPB05E07 P0000 T10441111

METARs EXPIRÉS :
  • 121753Z 32008KT 10SM FEW024 BKN030 BKN065 M06/M12 A3035 RMK AO2 SNE00 SLP294 P0000 60000 T10611117 11056 21089 58002
  • 121653Z 34011KT 6SM -SN BKN025 BKN033 M06/M11 A3036 RMK AO2 UPB41E45SNE34B45 SLP296 P0000 T10561111
  • 121616Z 33010KT 5SM -SN FEW013 SCT018 OVC030 M06/M11 A3036 RMK AO2 P0000 T10611106
  • 121553Z 32006KT 1 1/2SM -SN FEW014 OVC019 M07/M10 A3036 RMK AO2 SLP297 P0000 T10671100

TAF KAZO
Valide du 12 à 18h jusqu'au 13 à 18h UTC


121740Z 1218/1318 34012KT 5SM -SHSN BKN025
TEMPO 1218/1221 2SM -SHSN BKN015
FM122100 30012KT P6SM VCSH BKN035
FM130000 27005KT P6SM BKN120
FM131600 21008KT P6SM BKN050



MET'MAP, la Météo Aéronautique d'un coup d'oeil ! - Copyright ORBIFLY Décembre 2007 - Disclaimer

ORBIFLY MET'MAP TEAM :

Programmation & Développement : Alexandra Zaïnal
Conception & Développement : Baudouin d'Aumeries
Co-Programmation & Développement : Marc-Olivier Méhu
Soutien technique & logistique : Manuel Goepfert

Contact : metmap@orbifly.com




SOURCES & CREDITS :

   NOAA       Earth
Advisory